Evansville (EVV/KEVV)

Map

Destinations

Information

Location
Evansville, IN
Local Time
20:13 / 8:13 pm
GMT Time
00:13 / 12:13 am
Gates
A2
No FAA reported delays
METAR KEVV 252354Z 17007KT 10SM CLR 24/14 A2962 RMK AO2 SLP026 T02390139 56013 $
TAF KEVV 252320Z 2600/2624 16005KT P6SM SCT250 FM260900 17008KT P6SM SCT060 BKN250 FM261500 19013G21KT P6SM BKN025 FM262100 19012G18KT P6SM BKN050